Time;durP1;ratioP1;P1;durP2;ratioP2;P2;SDS_P1;SDS_P2;PMS_P1;PMS_P2;Temp;Humidity;BMP_temperature;BMP_pressure;BME280_temperature;BME280_humidity;BME280_pressure;Samples;Min_cycle;Max_cycle;Signal;HPM_P1;HPM_P2
2022/07/03 00:00:28;;;;;;;3.78;2.53;;;21.10;54.60;;;21.35;46.55;97792.19;5022854;28;20058;-49
2022/07/03 00:02:55;;;;;;;4.13;2.00;;;21.10;54.60;;;21.35;46.64;97796.78;5022173;28;20057;-53
2022/07/03 00:05:24;;;;;;;2.50;2.30;;;21.10;54.70;;;21.35;46.36;97797.59;5022542;28;20042;-51
2022/07/03 00:07:52;;;;;;;2.30;2.08;;;21.10;54.80;;;21.34;46.45;97795.09;5022253;28;20041;-52
2022/07/03 00:10:19;;;;;;;2.90;2.20;;;21.10;55.00;;;;;;5022368;28;20046;-48
2022/07/03 00:12:47;;;;;;;2.50;2.20;;;21.20;54.70;;;21.41;46.80;97801.28;5022668;28;20059;-51
2022/07/03 00:15:15;;;;;;;2.63;2.10;;;21.20;54.60;;;21.42;47.01;97795.63;5022389;28;20050;-49
2022/07/03 00:17:43;;;;;;;3.20;2.45;;;21.20;54.70;;;21.42;46.54;97801.06;5022060;28;20419;-49
2022/07/03 00:20:11;;;;;;;2.47;2.28;;;21.20;54.70;;;21.44;46.78;97800.84;5022957;28;20057;-48
2022/07/03 00:22:43;;;;;;;2.90;2.00;;;21.30;54.80;;;21.45;46.65;97798.97;5022272;28;20362;-51
2022/07/03 00:25:13;;;;;;;2.47;2.00;;;21.30;55.10;;;21.47;47.05;97799.56;5022248;28;20042;-47
2022/07/03 00:27:45;;;;;;;2.60;2.38;;;21.30;54.90;;;21.46;46.78;97804.19;5022179;28;20284;-50
2022/07/03 00:30:13;;;;;;;2.15;1.95;;;21.30;55.30;;;21.45;47.18;97796.28;5022291;28;20046;-50
2022/07/03 00:32:42;;;;;;;2.40;2.10;;;21.20;55.00;;;21.45;46.98;97802.50;5022219;28;20046;-52
2022/07/03 00:35:15;;;;;;;2.03;1.80;;;21.20;55.00;;;21.45;46.85;97802.50;5020910;28;20046;-49
2022/07/03 00:37:43;;;;;;;2.53;2.25;;;21.20;55.60;;;21.42;47.30;97803.75;5021077;28;20385;-50
2022/07/03 00:40:12;;;;;;;2.30;2.10;;;21.20;55.20;;;21.38;47.50;97799.00;5023484;28;20057;-45
2022/07/03 00:42:40;;;;;;;3.25;1.92;;;21.20;55.70;;;21.38;47.51;97799.00;5023048;28;20076;-50
2022/07/03 00:45:09;;;;;;;2.80;2.00;;;21.20;55.70;;;21.37;47.31;97791.97;5021818;28;20042;-50
2022/07/03 00:47:37;;;;;;;3.75;2.45;;;21.20;55.60;;;21.35;47.46;97799.47;5021393;28;20041;-49
2022/07/03 00:50:09;;;;;;;2.30;2.10;;;21.10;55.70;;;21.33;47.92;97799.69;5022640;28;20052;-49
2022/07/03 00:52:39;;;;;;;3.10;2.00;;;21.10;56.20;;;21.34;47.74;97801.34;5022286;28;20056;-50
2022/07/03 00:55:14;;;;;;;1.83;1.73;;;21.10;55.80;;;21.33;47.81;97796.19;5021852;28;20060;-48
2022/07/03 00:57:48;;;;;;;3.58;1.75;;;21.10;55.80;;;21.31;48.09;97795.56;5021713;28;20391;-51
2022/07/03 01:00:17;;;;;;;2.28;1.90;;;21.10;56.30;;;21.31;48.03;97801.00;5022188;28;20252;-46
2022/07/03 01:03:02;;;;;;;2.03;1.80;;;21.10;56.20;;;21.31;48.12;97807.22;5024607;28;20054;-46
2022/07/03 01:05:40;;;;;;;2.80;2.05;;;21.10;56.70;;;21.30;48.32;97804.75;5025542;28;20060;-51
2022/07/03 01:08:11;;;;;;;4.97;2.20;;;21.10;56.50;;;21.29;48.05;97808.50;5025489;28;20336;-48
2022/07/03 01:11:10;;;;;;;2.55;2.25;;;21.10;57.50;;;21.24;48.85;97807.28;5025417;28;20049;-51
2022/07/03 01:13:54;;;;;;;3.13;2.25;;;21.00;57.00;;;21.23;48.84;97799.41;5025599;28;20058;-48
2022/07/03 01:16:47;;;;;;;2.63;2.28;;;21.00;57.10;;;21.20;48.30;97786.31;5023804;28;20060;-46
2022/07/03 01:19:32;;;;;;;2.70;2.10;;;21.00;58.30;;;21.16;48.13;97794.06;5024364;28;20056;-49
2022/07/03 01:22:30;;;;;;;2.15;1.95;;;20.90;57.60;;;21.11;48.22;97796.63;5025504;28;20052;-49
2022/07/03 01:25:15;;;;;;;3.13;2.00;;;20.80;57.20;;;21.11;48.44;97793.06;5026066;28;20046;-50
2022/07/03 01:28:01;;;;;;;3.13;2.20;;;20.80;57.60;;;21.06;48.60;97801.88;5025647;28;20061;-48
2022/07/03 01:30:34;;;;;;;2.55;1.90;;;20.80;57.50;;;21.01;49.04;97793.59;5025258;28;20041;-49
2022/07/03 01:33:11;;;;;;;3.50;2.25;;;20.70;57.60;;;21.01;48.66;97796.31;5025306;28;20049;-47
2022/07/03 01:35:52;;;;;;;2.83;1.95;;;20.70;57.50;;;21.00;48.75;97791.97;5025621;28;20059;-49
2022/07/03 01:38:21;;;;;;;2.30;2.08;;;20.70;57.50;;;21.00;48.42;97786.53;5025450;28;20372;-53
2022/07/03 01:40:50;;;;;;;2.78;2.25;;;20.70;57.40;;;20.98;48.32;97789.47;5024999;28;20060;-50
2022/07/03 01:43:22;;;;;;;4.28;2.08;;;20.70;57.20;;;20.96;48.70;97788.06;5023983;28;20064;-48
2022/07/03 01:45:50;;;;;;;2.03;1.80;;;20.60;58.00;;;20.92;48.95;97795.78;5023901;28;20069;-52
2022/07/03 01:48:19;;;;;;;2.75;2.00;;;20.60;57.50;;;20.89;48.97;97788.09;5023356;28;20042;-50
2022/07/03 01:50:49;;;;;;;2.75;1.83;;;20.60;57.40;;;20.86;48.65;97793.97;5024072;28;20244;-48
2022/07/03 01:53:18;;;;;;;3.53;2.00;;;20.60;57.50;;;20.79;48.69;97783.22;5024863;28;20056;-50
2022/07/03 01:55:47;;;;;;;2.20;2.00;;;20.50;57.60;;;20.81;48.74;97783.00;5025348;28;20053;-52
2022/07/03 01:58:15;;;;;;;3.22;2.05;;;20.50;57.60;;;20.81;48.67;97783.00;5023991;28;20049;-51
2022/07/03 02:01:25;;;;;;;2.50;1.90;;;20.50;57.30;;;20.72;49.13;97782.44;5024802;28;20068;-51
2022/07/03 02:04:23;;;;;;;2.13;1.85;;;20.50;57.90;;;20.70;48.82;97786.41;5025112;28;20046;-48
2022/07/03 02:07:17;;;;;;;2.35;1.80;;;20.40;58.20;;;20.66;48.75;97777.91;5023661;28;20049;-50
2022/07/03 02:09:57;;;;;;;;;;;20.40;58.30;;;20.62;49.09;97774.00;5023844;28;20050;-51
2022/07/03 02:12:34;;;;;;;3.67;2.10;;;20.30;58.90;;;20.61;49.14;97769.66;5022755;28;19917;-52
2022/07/03 02:15:08;;;;;;;2.53;2.05;;;20.30;58.30;;;20.61;49.24;97777.78;5022507;28;20172;-50
2022/07/03 02:17:43;;;;;;;3.25;2.10;;;20.20;58.10;;;20.56;49.41;97774.88;5024195;28;20049;-51
2022/07/03 02:20:16;;;;;;;2.40;2.00;;;20.20;58.00;;;20.55;49.37;97774.06;5023474;28;20046;-51
2022/07/03 02:22:55;;;;;;;2.88;2.17;;;20.20;58.30;;;20.51;49.27;97766.59;5024401;28;20042;-52
2022/07/03 02:25:33;;;;;;;2.92;1.90;;;20.20;58.60;;;20.48;49.26;97770.56;5023192;28;20046;-51
2022/07/03 02:28:27;;;;;;;3.45;2.10;;;20.20;58.10;;;20.47;49.42;97763.50;5025096;28;20053;-50
2022/07/03 02:31:01;;;;;;;2.70;1.90;;;20.20;58.40;;;20.46;49.34;97772.69;5023010;28;20064;-52
2022/07/03 02:33:32;;;;;;;2.05;1.85;;;20.10;58.30;;;20.44;49.22;97775.59;5023289;28;20050;-52
2022/07/03 02:36:00;;;;;;;2.25;2.00;;;20.20;58.00;;;20.43;49.30;97773.09;5024056;28;20050;-53
2022/07/03 02:38:30;;;;;;;3.33;2.25;;;20.20;57.80;;;20.43;49.33;97773.09;5023815;28;20054;-48
2022/07/03 02:41:09;;;;;;;2.03;1.77;;;20.20;57.70;;;20.41;49.31;97776.06;5023114;28;20247;-47
2022/07/03 02:43:48;;;;;;;2.78;2.58;;;20.20;57.90;;;20.44;49.37;97777.47;5024537;28;20050;-51
2022/07/03 02:47:01;;;;;;;2.05;1.88;;;20.20;57.60;;;20.45;49.40;97776.41;5023859;28;20042;-52
2022/07/03 02:50:11;;;;;;;1.92;1.70;;;20.20;57.60;;;20.45;48.92;97781.81;5022628;28;20058;-49
2022/07/03 02:52:38;;;;;;;2.40;1.90;;;20.20;57.60;;;20.47;48.94;97777.03;5023717;28;20056;-48
2022/07/03 02:55:40;;;;;;;3.42;1.70;;;20.20;57.00;;;20.47;49.30;97785.13;5023549;28;20054;-47
2022/07/03 02:58:53;;;;;;;1.80;1.70;;;20.30;57.30;;;20.48;49.06;97778.69;5023410;28;20076;-50
2022/07/03 03:01:34;;;;;;;2.13;1.90;;;20.30;57.30;;;20.50;48.93;97782.00;5024365;28;20252;-52
2022/07/03 03:04:16;;;;;;;2.10;1.90;;;20.30;57.20;;;20.48;49.15;97785.97;5023609;28;20348;-49
2022/07/03 03:07:01;;;;;;;2.83;1.83;;;20.30;57.20;;;20.49;48.83;97793.03;5022363;28;20046;-52
2022/07/03 03:09:43;;;;;;;3.28;1.92;;;20.30;57.30;;;20.47;49.07;97787.84;5022155;28;20045;-49
2022/07/03 03:12:13;;;;;;;2.33;1.63;;;20.30;57.20;;;20.50;48.72;97794.69;5022536;28;20042;-49
2022/07/03 03:14:44;;;;;;;1.70;1.60;;;20.30;56.90;;;20.46;49.07;97789.72;5023054;28;20052;-48
2022/07/03 03:17:26;;;;;;;4.30;2.00;;;20.30;57.10;;;20.44;49.00;97789.13;5023883;28;20050;-49
2022/07/03 03:19:58;;;;;;;1.92;1.60;;;20.30;57.30;;;20.39;49.19;97790.81;5023359;28;20053;-50
2022/07/03 03:22:50;;;;;;;3.22;1.80;;;20.20;57.30;;;20.41;49.24;97796.84;5022170;28;20052;-49
2022/07/03 03:25:20;;;;;;;2.40;2.20;;;20.20;57.00;;;20.39;49.11;97794.34;5022577;28;20104;-48
2022/07/03 03:27:48;;;;;;;2.15;1.80;;;20.20;57.00;;;20.39;49.10;97796.22;5021822;28;20049;-48
2022/07/03 03:30:16;;;;;;;1.70;1.60;;;20.20;56.90;;;20.41;48.83;97802.25;5023073;28;20052;-47
2022/07/03 03:32:45;;;;;;;2.85;1.92;;;20.20;56.80;;;20.38;48.92;97805.41;5022962;28;20037;-51
2022/07/03 03:35:13;;;;;;;1.90;1.70;;;20.20;56.90;;;20.39;49.04;97802.44;5022741;28;20338;-49
2022/07/03 03:37:41;;;;;;;2.22;1.80;;;20.30;56.80;;;20.42;49.11;97803.91;5022718;28;20049;-50
2022/07/03 03:40:11;;;;;;;2.50;1.65;;;20.30;56.70;;;20.42;48.94;97806.63;5022833;28;20125;-49
2022/07/03 03:42:39;;;;;;;2.38;1.95;;;20.20;56.60;;;20.45;48.88;97803.44;5021732;28;20371;-53
2022/07/03 03:45:08;;;;;;;2.95;1.65;;;20.30;56.70;;;20.46;49.00;97805.94;5022172;28;20045;-52
2022/07/03 03:47:36;;;;;;;1.90;1.70;;;20.30;56.50;;;20.48;48.64;97808.44;5021533;28;20054;-48
2022/07/03 03:50:05;;;;;;;1.88;1.70;;;20.30;56.40;;;20.46;48.83;97811.34;5022856;28;20042;-48
2022/07/03 03:52:33;;;;;;;1.65;1.40;;;20.30;56.60;;;20.46;48.91;97810.53;5023057;28;20046;-49
2022/07/03 03:55:01;;;;;;;2.30;1.58;;;20.30;56.70;;;20.45;48.93;97817.81;5022516;28;20049;-49
2022/07/03 03:57:29;;;;;;;2.08;1.73;;;20.30;56.50;;;20.46;48.72;97827.56;5022254;28;20228;-49
2022/07/03 03:59:57;;;;;;;2.55;1.63;;;20.30;56.50;;;20.48;48.92;97821.94;5021645;28;20053;-49
2022/07/03 04:02:25;;;;;;;2.72;1.70;;;20.30;56.60;;;20.50;48.85;97825.25;5022729;28;20240;-48
2022/07/03 04:04:53;;;;;;;2.25;1.92;;;20.30;56.60;;;20.52;49.02;97833.16;5022839;28;20045;-50
2022/07/03 04:07:21;;;;;;;3.17;2.15;;;20.40;56.40;;;20.55;49.02;97821.88;5023127;28;20049;-52
2022/07/03 04:09:48;;;;;;;2.35;1.80;;;20.40;56.40;;;20.53;48.79;97821.28;5022309;28;20060;-50
2022/07/03 04:12:16;;;;;;;2.33;1.70;;;20.40;56.60;;;20.54;48.82;97817.53;5021478;28;20277;-49
2022/07/03 04:14:44;;;;;;;1.70;1.60;;;20.40;56.60;;;20.55;48.99;97822.72;5023067;28;20054;-49
2022/07/03 04:17:12;;;;;;;1.95;1.67;;;20.40;56.70;;;20.55;48.83;97830.84;5022496;28;20046;-48
2022/07/03 04:19:40;;;;;;;1.55;1.45;;;20.40;56.60;;;20.54;48.72;97821.06;5022745;28;20223;-49
2022/07/03 04:22:09;;;;;;;1.60;1.50;;;20.30;57.00;;;20.54;49.00;97831.06;5022530;28;20370;-49
2022/07/03 04:24:37;;;;;;;1.40;1.30;;;20.30;57.10;;;20.52;49.22;97833.97;5022073;28;20340;-50
2022/07/03 04:27:05;;;;;;;1.52;1.42;;;20.30;56.90;;;20.53;48.98;97830.25;5022354;28;20235;-49
2022/07/03 04:29:33;;;;;;;1.70;1.38;;;20.30;57.00;;;20.53;48.82;97832.09;5022648;28;20048;-50
2022/07/03 04:32:01;;;;;;;1.50;1.40;;;20.30;57.00;;;20.52;49.21;97833.16;5022165;28;20048;-50
2022/07/03 04:34:28;;;;;;;2.00;1.35;;;20.30;57.20;;;20.52;49.24;97838.56;5022337;28;20059;-48
2022/07/03 04:36:56;;;;;;;1.70;1.60;;;20.30;57.00;;;20.48;49.53;97849.00;5023601;28;20054;-48
2022/07/03 04:39:24;;;;;;;1.83;1.60;;;20.30;57.30;;;20.43;49.65;97848.81;5026060;28;20045;-51
2022/07/03 04:41:52;;;;;;;2.35;1.75;;;20.30;57.70;;;20.42;49.57;97847.16;5026274;28;20046;-49
2022/07/03 04:44:20;;;;;;;2.63;1.88;;;20.20;57.60;;;20.44;49.57;97848.59;5026058;28;20054;-48
2022/07/03 04:46:47;;;;;;;2.13;1.90;;;20.30;57.70;;;20.47;49.78;97855.44;5026675;28;20049;-50
2022/07/03 04:49:17;;;;;;;2.97;1.80;;;20.30;57.80;;;20.48;49.98;97850.88;5025630;28;20053;-47
2022/07/03 04:51:45;;;;;;;2.40;1.60;;;20.30;57.70;;;20.50;49.95;97856.88;5026399;28;20362;-50
2022/07/03 04:54:13;;;;;;;3.03;1.67;;;20.40;57.70;;;20.49;50.10;97860.63;5025900;28;20046;-49
2022/07/03 04:56:40;;;;;;;1.67;1.58;;;20.40;57.90;;;20.49;49.91;97855.22;5025983;28;20056;-46
2022/07/03 04:59:08;;;;;;;2.10;1.80;;;20.40;58.10;;;20.50;50.04;97854.19;5025805;28;20368;-50
2022/07/03 05:01:36;;;;;;;1.92;1.70;;;20.40;58.00;;;20.52;49.97;97855.63;5025980;28;20046;-48
2022/07/03 05:04:05;;;;;;;1.70;1.60;;;20.40;58.10;;;20.55;50.25;97857.88;5025823;28;20045;-46
2022/07/03 05:06:33;;;;;;;1.80;1.58;;;20.40;58.10;;;20.58;50.04;97859.31;5025739;28;20344;-49
2022/07/03 05:09:01;;;;;;;1.58;1.40;;;20.50;58.30;;;20.56;50.60;97856.00;5025333;28;20046;-47
2022/07/03 05:11:28;;;;;;;1.85;1.67;;;20.40;58.50;;;20.57;50.68;97847.69;5024643;28;20053;-46
2022/07/03 05:13:56;;;;;;;4.10;1.75;;;20.50;59.00;;;20.61;50.51;97853.50;5025678;28;20053;-46
2022/07/03 05:16:24;;;;;;;5.22;1.95;;;20.50;59.10;;;20.63;50.70;97860.34;5026432;28;20058;-46
2022/07/03 05:18:52;;;;;;;3.47;1.88;;;20.50;58.90;;;20.65;50.89;97860.94;5025803;28;20049;-46
2022/07/03 05:21:20;;;;;;;2.58;1.65;;;20.60;58.90;;;20.69;50.83;97861.34;5025477;28;20053;-50
2022/07/03 05:23:48;;;;;;;4.18;1.70;;;20.70;58.90;;;20.75;50.83;97857.75;5024471;28;20060;-49
2022/07/03 05:26:16;;;;;;;1.98;1.70;;;20.70;58.70;;;20.76;51.09;97870.25;5025310;28;20068;-53
2022/07/03 05:28:44;;;;;;;2.63;1.52;;;20.80;59.10;;;20.81;50.96;97846.03;5026078;28;20046;-49
2022/07/03 05:31:12;;;;;;;2.20;1.70;;;20.80;59.10;;;20.85;51.10;97860.78;5025276;28;20042;-47
2022/07/03 05:33:40;;;;;;;2.90;1.90;;;20.80;58.90;;;20.91;51.08;97852.81;5025364;28;20049;-53
2022/07/03 05:36:08;;;;;;;1.73;1.60;;;20.90;59.00;;;20.97;51.10;97851.94;5025131;28;20056;-46
2022/07/03 05:41:22;;;;;;;1.60;1.50;;;21.00;58.90;;;21.07;51.05;97863.06;5025573;28;20050;-50
2022/07/03 05:43:50;;;;;;;2.30;2.00;;;21.10;58.90;;;21.13;51.15;97864.91;5025940;28;20060;-49
2022/07/03 05:46:18;;;;;;;2.22;1.90;;;21.10;58.90;;;21.17;50.73;97859.84;5024680;28;20054;-48
2022/07/03 05:48:46;;;;;;;2.92;1.90;;;21.20;58.90;;;21.21;50.92;97861.91;5024419;28;20048;-47
2022/07/03 05:51:14;;;;;;;4.45;2.20;;;21.20;58.90;;;21.26;51.23;97863.91;5025054;28;20366;-49
2022/07/03 05:53:42;;;;;;;2.60;1.80;;;21.30;59.10;;;21.30;51.44;97862.41;5024840;28;20046;-48
2022/07/03 05:56:09;;;;;;;1.90;1.70;;;21.30;59.30;;;21.33;51.44;97855.75;5024797;28;20053;-48
2022/07/03 05:58:37;;;;;;;1.92;1.65;;;21.40;59.20;;;21.36;51.08;97857.97;5024645;28;20052;-50
2022/07/03 06:01:05;;;;;;;2.38;1.75;;;21.40;58.90;;;21.39;51.33;97861.06;5024700;28;20049;-53
2022/07/03 06:03:33;;;;;;;1.42;1.30;;;21.40;59.00;;;21.45;50.72;97866.69;5024879;28;20056;-49
2022/07/03 06:06:01;;;;;;;1.60;1.50;;;21.50;59.00;;;21.48;50.92;97861.66;5025182;28;20050;-49
2022/07/03 06:08:29;;;;;;;1.98;1.60;;;21.50;58.70;;;21.52;50.54;97854.72;5024502;28;20055;-50
2022/07/03 06:10:56;;;;;;;3.25;2.08;;;21.60;58.60;;;21.55;50.65;97856.97;5023736;28;20049;-49
2022/07/03 06:13:24;;;;;;;4.00;2.10;;;21.60;58.20;;;21.60;50.28;97854.41;5024750;28;20048;-49
2022/07/03 06:15:52;;;;;;;2.00;1.80;;;21.60;58.00;;;21.65;50.08;97852.91;5024544;28;20064;-49
2022/07/03 06:18:20;;;;;;;1.83;1.20;;;21.70;57.60;;;21.68;49.67;97858.69;5025006;28;20053;-51
2022/07/03 06:20:48;;;;;;;1.83;1.73;;;21.80;57.20;;;21.73;49.70;97855.28;5024304;28;20049;-49
2022/07/03 06:23:16;;;;;;;1.90;1.50;;;21.80;56.90;;;21.76;50.17;97861.09;5025065;28;20060;-49
2022/07/03 06:26:03;;;;;;;1.98;1.52;;;21.80;58.00;;;21.82;49.84;97864.75;5024345;28;20292;-50
2022/07/03 06:28:31;;;;;;;2.88;1.52;;;21.90;57.60;;;21.88;50.03;97866.56;5025121;28;20241;-50
2022/07/03 06:30:59;;;;;;;3.40;2.40;;;21.90;57.40;;;21.90;50.08;97866.34;5024977;28;20076;-48
2022/07/03 06:33:27;;;;;;;1.75;1.65;;;22.00;57.10;;;21.95;49.75;97872.72;5024699;28;20233;-47
2022/07/03 06:35:55;;;;;;;2.03;1.83;;;22.00;57.10;;;21.99;50.07;97870.38;5023984;28;20054;-49
2022/07/03 06:38:23;;;;;;;1.92;1.70;;;22.10;57.30;;;22.02;49.70;97868.06;5023917;28;20056;-48
2022/07/03 06:40:51;;;;;;;4.15;2.05;;;22.10;57.20;;;22.08;49.82;97866.31;5024151;28;20052;-49
2022/07/03 06:43:19;;;;;;;2.38;1.75;;;22.10;57.30;;;22.12;49.99;97870.22;5023918;28;20050;-50
2022/07/03 06:45:47;;;;;;;1.50;1.40;;;22.20;57.40;;;22.16;49.71;97867.88;5024300;28;20045;-48
2022/07/03 06:48:14;;;;;;;2.53;1.50;;;22.20;56.80;;;22.20;49.51;97874.50;5023684;28;20075;-50
2022/07/03 06:50:42;;;;;;;2.30;1.55;;;22.30;56.80;;;22.24;49.72;97875.69;5023809;28;20056;-48
2022/07/03 06:53:10;;;;;;;2.53;1.58;;;22.40;56.70;;;22.27;48.81;97874.41;5024657;28;20050;-50
2022/07/03 06:55:38;;;;;;;3.15;1.90;;;22.40;55.50;;;22.29;48.47;97867.69;5023832;28;20059;-46
2022/07/03 06:58:06;;;;;;;2.95;1.75;;;22.50;55.60;;;22.35;48.48;97872.22;5023167;28;20244;-50
2022/07/03 07:00:34;;;;;;;1.48;1.38;;;22.50;55.50;;;22.39;48.26;97875.25;5022986;28;20050;-49
2022/07/03 07:03:02;;;;;;;1.77;1.67;;;22.50;54.60;;;22.44;47.99;97877.28;5023424;28;20049;-51
2022/07/03 07:05:30;;;;;;;2.22;1.80;;;22.60;54.90;;;22.47;48.19;97876.81;5023357;28;20056;-47
2022/07/03 07:07:58;;;;;;;1.73;1.63;;;22.60;54.70;;;22.51;47.65;97878.03;5023623;28;20052;-45
2022/07/03 07:10:26;;;;;;;2.70;1.52;;;22.70;54.40;;;22.53;47.77;97879.44;5023417;28;20045;-50
2022/07/03 07:12:54;;;;;;;1.83;1.63;;;22.70;54.20;;;22.59;47.76;97881.22;5022610;28;20057;-48
2022/07/03 07:15:22;;;;;;;1.60;1.50;;;22.70;54.20;;;22.64;47.52;97880.50;5023326;28;20052;-48
2022/07/03 07:17:50;;;;;;;2.45;1.60;;;22.80;54.10;;;22.70;47.81;97886.88;5023076;28;20060;-48
2022/07/03 07:20:17;;;;;;;2.25;1.80;;;22.80;54.10;;;22.74;47.23;97883.50;5023354;28;20239;-50
2022/07/03 07:22:45;;;;;;;2.22;1.85;;;22.80;53.80;;;22.79;47.43;97891.75;5023190;28;20337;-47
2022/07/03 07:25:13;;;;;;;1.70;1.60;;;22.90;53.80;;;22.84;47.33;97887.50;5023159;28;20049;-49
2022/07/03 07:27:41;;;;;;;1.95;1.83;;;23.00;53.80;;;22.87;46.51;97882.44;5023278;28;20056;-46
2022/07/03 07:30:09;;;;;;;2.08;1.60;;;23.00;52.70;;;22.92;46.43;97885.28;5023212;28;20046;-48
2022/07/03 07:32:37;;;;;;;1.83;1.40;;;23.00;52.20;;;22.97;46.04;97895.41;5022962;28;20067;-48
2022/07/03 07:35:06;;;;;;;2.10;1.90;;;23.10;51.80;;;23.02;46.24;97892.84;5022929;28;20046;-47
2022/07/03 07:37:34;;;;;;;1.45;1.35;;;23.20;51.90;;;23.07;46.03;97897.59;5021558;28;20052;-48
2022/07/03 07:40:03;;;;;;;2.03;1.70;;;23.20;51.70;;;23.09;45.90;97887.31;5023113;28;20057;-48
2022/07/03 07:42:31;;;;;;;1.58;1.48;;;23.30;51.80;;;23.15;44.96;97892.63;5022590;28;20060;-47
2022/07/03 07:44:59;;;;;;;2.20;1.83;;;23.40;49.20;;;23.21;44.61;97884.63;5022974;28;20049;-47
2022/07/03 07:47:26;;;;;;;2.03;1.45;;;23.40;49.90;;;23.21;43.58;97890.06;5022565;28;20054;-47
2022/07/03 07:49:54;;;;;;;2.60;1.60;;;23.50;47.90;;;23.28;44.09;97888.84;5022807;28;20046;-45
2022/07/03 07:52:24;;;;;;;1.60;1.50;;;23.50;48.90;;;23.28;45.06;97886.13;5022669;28;20049;-46
2022/07/03 07:54:52;;;;;;;1.90;1.70;;;23.60;50.40;;;23.33;44.57;97880.81;5022631;28;20049;-46
2022/07/03 07:57:19;;;;;;;2.00;1.58;;;23.60;49.90;;;23.31;45.71;97891.09;5023580;28;20060;-46
2022/07/03 07:59:47;;;;;;;1.92;1.48;;;23.60;51.60;;;23.36;43.89;97880.34;5022875;28;20064;-46
2022/07/03 08:07:55;;;;;;;1.95;1.85;;;23.70;52.60;;;23.50;47.04;97885.53;5022217;28;20042;-50
2022/07/03 08:10:23;;;;;;;2.53;2.00;;;23.80;53.10;;;23.55;46.77;97875.59;5022741;28;20048;-51
2022/07/03 08:12:51;;;;;;;1.90;1.55;;;23.90;52.90;;;23.58;46.60;97871.56;5029411;28;20041;-49
2022/07/03 08:15:19;;;;;;;2.20;1.90;;;23.90;53.10;;;23.61;46.43;97881.13;5042241;28;20068;-48
2022/07/03 08:17:47;;;;;;;3.05;1.65;;;23.90;52.10;;;23.66;44.28;97873.09;5042378;28;20063;-49
2022/07/03 08:20:14;;;;;;;1.98;1.50;;;23.90;49.40;;;23.72;44.62;97874.84;5042236;28;20049;-47
2022/07/03 08:22:42;;;;;;;1.52;1.42;;;23.90;49.80;;;23.72;43.41;97872.94;5042080;28;20243;-48
2022/07/03 08:25:10;;;;;;;3.78;1.50;;;24.00;48.20;;;23.78;43.85;97871.19;5041969;28;20372;-50
2022/07/03 08:27:38;;;;;;;2.42;1.90;;;24.10;48.90;;;23.81;44.29;97869.88;5041747;28;20042;-46
2022/07/03 08:30:07;;;;;;;1.67;1.55;;;24.10;49.60;;;23.85;44.57;97876.50;5042560;28;20049;-48
2022/07/03 08:32:35;;;;;;;1.90;1.70;;;24.10;50.40;;;23.88;42.96;97868.66;5041848;28;20049;-47
2022/07/03 08:35:04;;;;;;;2.55;1.60;;;24.20;47.10;;;23.89;42.92;97872.25;5041862;28;20239;-48
2022/07/03 08:37:32;;;;;;;3.35;1.60;;;24.20;48.30;;;23.90;43.61;97869.25;5042609;28;20351;-50
2022/07/03 08:39:59;;;;;;;1.50;1.40;;;24.20;48.60;;;23.92;43.43;97871.75;5042015;28;20348;-50
2022/07/03 08:42:30;;;;;;;2.35;1.80;;;24.20;48.40;;;23.96;42.75;97865.59;5042371;28;20053;-47
2022/07/03 08:45:02;;;;;;;2.20;1.40;;;24.30;47.50;;;23.94;41.38;97865.00;5041838;28;20059;-48
2022/07/03 08:47:33;;;;;;;1.65;1.38;;;24.30;45.40;;;24.06;40.94;97861.41;5041604;28;20235;-53
2022/07/03 08:50:02;;;;;;;1.90;1.40;;;24.30;44.60;;;24.08;40.96;97862.81;5040478;28;20053;-51
2022/07/03 08:52:31;;;;;;;1.60;1.50;;;24.40;44.50;;;24.11;41.46;97869.66;5040585;28;20050;-51
2022/07/03 08:54:58;;;;;;;2.63;1.63;;;24.40;45.60;;;24.13;41.37;97859.38;5040672;28;20254;-48
2022/07/03 08:57:29;;;;;;;2.95;1.60;;;24.40;45.80;;;24.18;41.26;97859.47;5041652;28;20041;-51
2022/07/03 08:59:58;;;;;;;2.45;1.73;;;24.40;45.80;;;24.21;40.94;97864.41;5040634;28;20049;-49
2022/07/03 09:02:26;;;;;;;2.67;1.50;;;24.50;45.20;;;24.27;41.03;97860.72;5042432;28;20360;-46
2022/07/03 09:04:54;;;;;;;2.42;1.55;;;24.60;45.00;;;24.33;39.13;97869.78;5040676;28;20059;-47
2022/07/03 09:07:23;;;;;;;1.70;1.60;;;24.60;42.10;;;24.35;39.53;97868.50;5041801;28;20037;-53
2022/07/03 09:09:52;;;;;;;2.63;1.60;;;24.60;43.50;;;24.36;39.32;97866.59;5040669;28;20050;-49
2022/07/03 09:12:20;;;;;;;1.75;1.30;;;24.60;42.60;;;24.38;39.52;97869.88;5041755;28;20053;-48
2022/07/03 09:14:49;;;;;;;1.67;1.50;;;24.80;43.20;;;24.43;38.87;97864.53;5042279;28;20053;-53
2022/07/03 09:17:18;;;;;;;1.70;1.58;;;24.80;42.30;;;24.50;38.73;97870.63;5040582;28;20056;-51
2022/07/03 09:19:48;;;;;;;1.58;1.45;;;24.80;42.30;;;24.49;38.77;97858.13;5041981;28;20057;-50
2022/07/03 09:22:25;;;;;;;1.42;1.33;;;24.80;42.00;;;24.48;38.12;97861.88;5041600;28;20046;-49
2022/07/03 09:25:08;;;;;;;7.80;1.50;;;24.80;41.10;;;24.49;38.64;97869.00;5045324;28;20063;-47
2022/07/03 09:27:51;;;;;;;2.15;1.95;;;24.90;41.80;;;24.53;38.46;97861.22;5044067;28;20045;-50
2022/07/03 09:30:19;;;;;;;1.97;1.77;;;25.00;41.30;;;24.60;37.47;97863.75;5045100;28;20056;-51
2022/07/03 09:32:49;;;;;;;18.20;12.90;;;25.00;40.40;;;24.66;37.84;97860.88;5043790;28;20049;-47
2022/07/03 09:35:21;;;;;;;5.32;2.78;;;25.00;41.00;;;24.72;37.43;97865.34;5045900;28;20045;-49
2022/07/03 09:38:04;;;;;;;1.92;1.75;;;25.00;40.50;;;24.76;37.81;97868.41;5044930;28;20049;-47
2022/07/03 09:40:57;;;;;;;1.90;1.73;;;25.00;40.20;;;24.79;38.10;97858.91;5044150;28;20049;-48
2022/07/03 09:43:30;;;;;;;2.70;1.60;;;25.10;40.60;;;24.84;37.75;97854.34;5044990;28;20243;-50
2022/07/03 09:46:02;;;;;;;1.65;1.50;;;25.00;41.60;;;24.91;38.08;97846.00;5044904;28;20045;-49
2022/07/03 09:48:35;;;;;;;1.58;1.48;;;25.10;41.90;;;24.98;38.08;97859.47;5044490;28;20053;-50
2022/07/03 09:51:28;;;;;;;1.58;1.35;;;25.30;41.30;;;25.07;36.80;97853.34;5044985;28;20048;-49
2022/07/03 09:54:01;;;;;;;3.42;1.70;;;25.50;38.80;;;25.10;36.85;97846.56;5045237;28;20052;-47
2022/07/03 09:56:37;;;;;;;1.55;1.40;;;25.50;39.50;;;25.12;36.31;97842.50;5044750;28;20045;-46
2022/07/03 09:59:11;;;;;;;2.60;1.40;;;25.50;38.90;;;25.14;36.47;97842.28;5044382;28;20049;-49
2022/07/03 10:01:43;;;;;;;1.42;1.30;;;25.50;39.50;;;25.10;37.00;97836.50;5043753;28;20045;-51
2022/07/03 10:04:22;;;;;;;2.78;1.50;;;25.50;40.00;;;25.10;36.70;97852.03;5044821;28;20351;-48
2022/07/03 10:06:53;;;;;;;1.50;1.35;;;25.80;38.90;;;25.18;36.63;97845.31;5044510;28;20056;-50
2022/07/03 10:09:24;;;;;;;3.00;1.45;;;25.80;38.80;;;25.22;36.37;97841.00;5044224;28;20047;-48
2022/07/03 10:11:54;;;;;;;1.50;1.40;;;25.80;38.30;;;25.23;36.06;97846.25;5043738;28;20188;-49
2022/07/03 10:14:28;;;;;;;1.77;1.40;;;25.80;37.90;;;25.27;35.53;97843.84;5044282;28;20046;-49
2022/07/03 10:17:01;;;;;;;2.40;1.92;;;25.80;37.50;;;25.36;36.17;97839.63;5044472;28;20340;-52
2022/07/03 10:19:30;;;;;;;3.72;1.75;;;25.80;38.80;;;25.47;36.97;97837.84;5044053;28;20087;-47
2022/07/03 10:22:02;;;;;;;1.92;1.42;;;25.90;39.30;;;25.57;36.75;97834.41;5045134;28;20049;-48
2022/07/03 10:24:30;;;;;;;1.40;1.30;;;26.00;39.80;;;25.63;36.70;97839.69;5044174;28;20041;-51
2022/07/03 10:26:59;;;;;;;2.88;1.50;;;26.10;38.90;;;25.68;35.87;97838.94;5044151;28;20049;-50
2022/07/03 10:29:28;;;;;;;2.28;1.48;;;26.10;38.80;;;25.68;36.15;97831.56;5043624;28;20052;-47
2022/07/03 10:31:57;;;;;;;2.65;1.52;;;26.10;39.00;;;25.66;35.64;97844.63;5044238;28;20316;-47
2022/07/03 10:34:28;;;;;;;1.52;1.42;;;26.10;38.20;;;25.62;35.63;97848.13;5042977;28;20045;-48
2022/07/03 10:37:03;;;;;;;2.13;1.48;;;26.00;38.10;;;25.66;35.62;97841.91;5044155;28;20341;-51
2022/07/03 10:46:13;;;;;;;1.77;1.40;;;26.10;38.90;;;25.76;36.12;97852.09;5043635;28;20047;-48
2022/07/03 10:49:08;;;;;;;1.92;1.40;;;26.20;38.70;;;25.72;35.35;97838.16;5043484;28;20324;-51
2022/07/03 10:51:45;;;;;;;2.70;1.52;;;26.10;38.00;;;25.80;36.23;97838.78;5044007;28;20053;-48
2022/07/03 10:54:23;;;;;;;1.92;1.60;;;26.20;39.00;;;25.84;35.57;97840.78;5043520;28;20340;-49